createdAt,value
2022-09-28T00:01:54.282Z,1.50
2022-09-28T00:07:16.009Z,1.20
2022-09-28T00:12:38.225Z,1.30
2022-09-28T00:18:00.554Z,1.13
2022-09-28T00:23:22.307Z,1.07
2022-09-28T00:28:44.002Z,1.10
2022-09-28T00:34:06.325Z,1.40
2022-09-28T00:39:30.781Z,2.07
2022-09-28T00:44:53.033Z,1.43
2022-09-28T00:50:22.660Z,1.17
2022-09-28T00:55:46.502Z,1.43
2022-09-28T01:01:08.409Z,1.60
2022-09-28T01:06:32.967Z,1.40
2022-09-28T01:11:54.884Z,1.07
2022-09-28T01:17:18.651Z,0.97
2022-09-28T01:23:19.570Z,1.73
2022-09-28T01:28:43.537Z,1.53
2022-09-28T01:34:11.603Z,1.20
2022-09-28T01:39:35.813Z,1.20
2022-09-28T01:45:04.671Z,1.20
2022-09-28T01:50:28.185Z,1.47
2022-09-28T01:55:54.119Z,1.87
2022-09-28T02:01:19.271Z,1.63
2022-09-28T02:06:45.192Z,1.53
2022-09-28T02:12:10.858Z,1.87
2022-09-28T02:17:33.664Z,1.17
2022-09-28T02:22:56.376Z,1.37
2022-09-28T02:28:18.610Z,0.93
2022-09-28T02:33:42.437Z,1.30
2022-09-28T02:39:04.284Z,1.40
2022-09-28T02:44:39.589Z,0.90
2022-09-28T02:50:13.040Z,1.40
2022-09-28T02:55:45.734Z,1.27
2022-09-28T03:01:17.974Z,1.40
2022-09-28T03:06:44.835Z,0.93
2022-09-28T03:12:09.182Z,1.30
2022-09-28T03:17:31.026Z,1.00
2022-09-28T03:23:12.735Z,1.03
2022-09-28T03:28:35.767Z,1.20
2022-09-28T03:33:57.821Z,1.37
2022-09-28T03:39:20.317Z,1.00
2022-09-28T03:44:41.983Z,0.70
2022-09-28T03:50:04.272Z,1.03
2022-09-28T03:55:26.554Z,1.07
2022-09-28T04:00:49.298Z,1.00
2022-09-28T04:06:11.432Z,1.17
2022-09-28T04:11:47.581Z,0.97
2022-09-28T04:17:15.782Z,1.37
2022-09-28T04:22:37.657Z,1.30
2022-09-28T04:28:18.777Z,1.23
2022-09-28T04:33:40.529Z,1.63
2022-09-28T04:39:02.240Z,1.97
2022-09-28T04:44:26.512Z,1.67
2022-09-28T04:49:53.575Z,1.57
2022-09-28T04:55:21.186Z,1.70
2022-09-28T05:00:43.531Z,2.27
2022-09-28T05:06:31.380Z,1.97
2022-09-28T05:12:03.587Z,2.20
2022-09-28T05:17:25.920Z,1.93
2022-09-28T05:23:06.426Z,2.07
2022-09-28T05:28:30.274Z,1.60
2022-09-28T05:34:11.035Z,1.83
2022-09-28T05:39:33.176Z,1.40
2022-09-28T05:44:54.883Z,1.30
2022-09-28T05:50:17.524Z,1.23
2022-09-28T05:55:39.330Z,1.23
2022-09-28T06:01:01.255Z,1.73
2022-09-28T06:06:25.328Z,1.60
2022-09-28T06:11:47.791Z,1.03
2022-09-28T06:17:19.434Z,0.83
2022-09-28T06:22:51.408Z,1.27
2022-09-28T06:28:14.301Z,1.10
2022-09-28T06:33:37.872Z,1.10
2022-09-28T06:39:01.227Z,0.97
2022-09-28T06:44:24.428Z,1.07
2022-09-28T06:50:17.084Z,0.93
2022-09-28T06:55:52.659Z,1.10
2022-09-28T07:01:14.360Z,0.93
2022-09-28T07:06:46.838Z,1.10
2022-09-28T07:12:27.330Z,1.30
2022-09-28T07:18:02.191Z,0.90
2022-09-28T07:23:26.789Z,1.03
2022-09-28T07:29:21.600Z,1.10
2022-09-28T07:35:09.352Z,1.00
2022-09-28T07:40:57.108Z,0.97
2022-09-28T07:46:20.496Z,0.83
2022-09-28T07:51:53.447Z,0.80
2022-09-28T07:57:24.351Z,1.17
2022-09-28T08:02:59.605Z,1.60
2022-09-28T08:08:23.238Z,0.73
2022-09-28T08:13:45.853Z,0.97
2022-09-28T08:19:19.049Z,0.90
2022-09-28T08:24:41.984Z,0.73
2022-09-28T08:30:04.581Z,0.57
2022-09-28T08:35:34.835Z,0.70
2022-09-28T08:41:18.972Z,0.40
2022-09-28T08:46:59.668Z,0.40
2022-09-28T08:52:39.457Z,0.50
2022-09-28T08:58:35.730Z,0.37
2022-09-28T09:03:57.705Z,0.60
2022-09-28T09:09:38.780Z,0.80
2022-09-28T09:15:21.435Z,0.40
2022-09-28T09:20:47.918Z,0.40
2022-09-28T09:26:24.896Z,0.70
2022-09-28T09:32:03.221Z,0.60
2022-09-28T09:37:35.666Z,0.70
2022-09-28T09:43:39.825Z,0.23
2022-09-28T09:49:24.287Z,0.40
2022-09-28T09:54:48.929Z,0.53
2022-09-28T10:00:26.431Z,0.60
2022-09-28T10:06:06.441Z,0.40
2022-09-28T10:11:32.287Z,0.60
2022-09-28T10:16:56.841Z,0.40
2022-09-28T10:22:39.462Z,0.23
2022-09-28T10:28:06.714Z,0.30
2022-09-28T10:33:30.717Z,0.40
2022-09-28T10:38:53.276Z,0.47
2022-09-28T10:44:25.359Z,0.20
2022-09-28T10:49:58.145Z,0.30
2022-09-28T10:55:29.841Z,0.30
2022-09-28T11:00:52.697Z,0.40
2022-09-28T11:06:27.593Z,0.50
2022-09-28T11:11:51.201Z,0.20
2022-09-28T11:17:19.751Z,0.60
2022-09-28T11:22:46.594Z,2.10
2022-09-28T11:28:19.284Z,0.30
2022-09-28T11:33:46.353Z,0.30
2022-09-28T11:39:35.093Z,0.33
2022-09-28T11:45:05.989Z,0.20
2022-09-28T11:50:34.023Z,0.27
2022-09-28T11:56:09.039Z,0.20
2022-09-28T12:01:36.501Z,0.43
2022-09-28T12:07:12.531Z,0.30
2022-09-28T12:12:40.635Z,0.50
2022-09-28T12:18:09.241Z,0.30
2022-09-28T12:23:35.806Z,0.30
2022-09-28T12:29:03.438Z,0.40
2022-09-28T12:34:26.646Z,0.30
2022-09-28T12:40:07.563Z,0.33
2022-09-28T12:46:07.060Z,0.40
2022-09-28T12:51:41.439Z,0.13
2022-09-28T12:57:16.851Z,0.40
2022-09-28T13:02:58.796Z,0.30
2022-09-28T13:08:26.038Z,0.20
2022-09-28T13:13:54.295Z,1.10
2022-09-28T13:19:26.797Z,0.40
2022-09-28T13:24:51.399Z,0.27
2022-09-28T13:30:15.495Z,0.20
2022-09-28T13:35:44.225Z,0.43
2022-09-28T13:41:12.942Z,0.40
2022-09-28T13:46:42.133Z,0.40
2022-09-28T13:52:10.438Z,0.30
2022-09-28T13:57:44.283Z,0.30
2022-09-28T14:03:14.958Z,0.30
2022-09-28T14:08:41.176Z,0.40
2022-09-28T14:14:07.545Z,0.10
2022-09-28T14:19:33.825Z,0.10
2022-09-28T14:25:06.785Z,0.30
2022-09-28T14:30:46.657Z,0.30
2022-09-28T14:36:43.658Z,0.30
2022-09-28T14:42:15.225Z,0.40
2022-09-28T14:47:41.703Z,1.40
2022-09-28T14:53:05.881Z,0.80
2022-09-28T14:58:32.457Z,0.97
2022-09-28T15:03:56.759Z,0.20
2022-09-28T15:09:29.329Z,0.37
2022-09-28T15:14:56.380Z,0.30
2022-09-28T15:20:24.779Z,0.30
2022-09-28T15:25:52.710Z,0.43
2022-09-28T15:31:20.901Z,0.50
2022-09-28T15:36:46.458Z,0.30
2022-09-28T15:42:09.657Z,0.40
2022-09-28T15:47:34.107Z,0.40
2022-09-28T15:53:00.662Z,0.60
2022-09-28T15:58:24.772Z,0.67
2022-09-28T16:03:49.258Z,0.60
2022-09-28T16:09:41.047Z,0.40
2022-09-28T16:15:07.670Z,0.37
2022-09-28T16:20:35.532Z,0.30
2022-09-28T16:26:00.541Z,0.43
2022-09-28T16:31:29.673Z,0.40
2022-09-28T16:36:54.203Z,0.43
2022-09-28T16:42:17.441Z,0.60
2022-09-28T16:47:40.612Z,0.50
2022-09-28T16:53:34.111Z,0.60
2022-09-28T16:58:57.430Z,0.40
2022-09-28T17:04:20.489Z,0.50
2022-09-28T17:09:45.312Z,0.60
2022-09-28T17:15:09.058Z,0.70
2022-09-28T17:20:33.081Z,0.70
2022-09-28T17:25:58.955Z,0.70
2022-09-28T17:31:22.154Z,1.27
2022-09-28T17:36:45.894Z,0.60
2022-09-28T17:42:10.267Z,0.40
2022-09-28T17:47:34.393Z,0.50
2022-09-28T17:52:59.815Z,1.90
2022-09-28T17:58:24.431Z,0.70
2022-09-28T18:03:47.608Z,0.63
2022-09-28T18:09:12.339Z,0.93
2022-09-28T18:14:36.835Z,0.93
2022-09-28T18:19:59.957Z,1.50
2022-09-28T18:25:23.182Z,1.00
2022-09-28T18:30:47.737Z,0.80
2022-09-28T18:36:10.870Z,0.80
2022-09-28T18:41:34.187Z,0.97
2022-09-28T18:46:58.698Z,0.83
2022-09-28T18:52:21.817Z,1.40
2022-09-28T18:57:46.360Z,1.17
2022-09-28T19:03:14.321Z,1.50
2022-09-28T19:08:37.578Z,1.73
2022-09-28T19:14:00.658Z,1.30
2022-09-28T19:19:25.076Z,2.97
2022-09-28T19:24:48.075Z,2.73
2022-09-28T19:30:12.031Z,1.20
2022-09-28T19:35:36.463Z,1.47
2022-09-28T19:40:59.764Z,1.67
2022-09-28T19:46:22.861Z,1.67
2022-09-28T19:52:11.426Z,1.23
2022-09-28T19:57:32.796Z,1.60
2022-09-28T20:02:56.536Z,1.53
2022-09-28T20:08:21.841Z,1.43
2022-09-28T20:13:45.298Z,1.57
2022-09-28T20:19:08.523Z,1.70
2022-09-28T20:24:33.542Z,1.87
2022-09-28T20:29:56.598Z,2.00
2022-09-28T20:35:32.170Z,1.30
2022-09-28T20:41:00.678Z,1.67
2022-09-28T20:46:24.173Z,1.40
2022-09-28T20:51:47.309Z,2.13
2022-09-28T20:57:18.266Z,2.40
2022-09-28T21:02:41.367Z,3.30
2022-09-28T21:08:04.509Z,1.90
2022-09-28T21:13:28.895Z,1.40
2022-09-28T21:18:51.967Z,1.40
2022-09-28T21:24:15.069Z,1.30
2022-09-28T21:29:39.526Z,1.50
2022-09-28T21:35:02.591Z,1.23
2022-09-28T21:40:25.719Z,1.30
2022-09-28T21:45:51.989Z,1.60
2022-09-28T21:51:15.667Z,2.00
2022-09-28T21:56:38.684Z,2.03
2022-09-28T22:02:05.529Z,1.50
2022-09-28T22:07:28.577Z,1.53
2022-09-28T22:12:51.644Z,1.27
2022-09-28T22:18:16.056Z,1.20
2022-09-28T22:23:39.586Z,1.57
2022-09-28T22:29:04.557Z,1.60
2022-09-28T22:34:30.773Z,1.37
2022-09-28T22:39:54.000Z,2.07
2022-09-28T22:45:17.073Z,1.60
2022-09-28T22:50:48.938Z,1.50
2022-09-28T22:56:18.218Z,2.03
2022-09-28T23:01:42.006Z,1.43
2022-09-28T23:07:06.431Z,1.27
2022-09-28T23:12:30.445Z,1.37
2022-09-28T23:17:53.722Z,1.43
2022-09-28T23:23:18.131Z,1.23
2022-09-28T23:28:41.531Z,1.60
2022-09-28T23:34:06.404Z,1.53
2022-09-28T23:39:30.806Z,1.37
2022-09-28T23:44:53.910Z,1.80
2022-09-28T23:50:17.063Z,2.07
2022-09-28T23:55:42.903Z,1.50
